Time;durP1;ratioP1;P1;durP2;ratioP2;P2;SDS_P1;SDS_P2;PMS_P1;PMS_P2;Temp;Humidity;BMP_temperature;BMP_pressure;BME280_temperature;BME280_humidity;BME280_pressure;Samples;Min_cycle;Max_cycle;Signal;HPM_P1;HPM_P2
2021/01/08 00:02:16;;;;;;;1.67;0.95;;;2.50;99.90;;;;;;4446235;32;20060;-59
2021/01/08 00:04:42;;;;;;;3.17;1.55;;;2.50;99.90;;;;;;4446318;32;20152;-53
2021/01/08 00:07:08;;;;;;;0.85;0.85;;;2.50;99.90;;;;;;4435480;32;20081;-55
2021/01/08 00:09:33;;;;;;;0.40;0.40;;;2.50;99.90;;;;;;4429157;32;20066;-57
2021/01/08 00:11:59;;;;;;;3.40;1.12;;;2.60;99.90;;;;;;4428217;32;20088;-58
2021/01/08 00:14:24;;;;;;;0.85;0.85;;;2.50;99.90;;;;;;4430326;32;20085;-58
2021/01/08 00:16:50;;;;;;;2.33;0.85;;;2.60;99.90;;;;;;4430272;32;20459;-58
2021/01/08 00:19:15;;;;;;;0.93;0.93;;;2.60;99.90;;;;;;4430314;32;20396;-58
2021/01/08 00:21:43;;;;;;;2.78;0.90;;;2.50;99.90;;;;;;4430042;32;20077;-58
2021/01/08 00:24:09;;;;;;;0.60;0.60;;;2.50;99.90;;;;;;4428381;32;20074;-59
2021/01/08 00:26:35;;;;;;;1.25;1.15;;;2.40;99.90;;;;;;4429661;32;20061;-59
2021/01/08 00:29:00;;;;;;;0.50;0.50;;;2.50;99.90;;;;;;4430137;32;20086;-55
2021/01/08 00:33:58;;;;;;;1.05;0.95;;;2.40;99.90;;;;;;4429139;32;20089;-59
2021/01/08 00:36:23;;;;;;;1.02;1.02;;;2.40;99.90;;;;;;4429741;32;20117;-59
2021/01/08 00:38:49;;;;;;;1.02;0.88;;;2.40;99.90;;;;;;4429055;32;20070;-57
2021/01/08 00:41:14;;;;;;;1.55;0.70;;;2.50;99.90;;;;;;4430423;32;20077;-59
2021/01/08 00:43:40;;;;;;;0.90;0.90;;;2.50;99.90;;;;;;4430167;32;20073;-59
2021/01/08 00:46:05;;;;;;;0.73;0.70;;;2.50;99.90;;;;;;4428861;32;20629;-54
2021/01/08 00:48:30;;;;;;;3.42;1.27;;;2.50;99.90;;;;;;4429530;32;20116;-58
2021/01/08 00:51:00;;;;;;;1.23;1.15;;;2.50;99.90;;;;;;4428760;32;20072;-57
2021/01/08 00:53:26;;;;;;;1.35;1.02;;;2.50;99.90;;;;;;4428572;32;20061;-58
2021/01/08 00:55:51;;;;;;;0.52;0.52;;;2.50;99.90;;;;;;4428814;32;20078;-58
2021/01/08 00:58:17;;;;;;;3.33;1.58;;;2.40;99.90;;;;;;4428852;32;20066;-58
2021/01/08 01:00:42;;;;;;;2.72;1.15;;;2.50;99.90;;;;;;4428216;32;20077;-57
2021/01/08 01:03:07;;;;;;;2.50;1.05;;;2.60;99.90;;;;;;4429440;32;20077;-59
2021/01/08 01:05:33;;;;;;;0.88;0.88;;;2.50;99.90;;;;;;4429305;32;20081;-58
2021/01/08 01:07:58;;;;;;;1.10;0.77;;;2.50;99.90;;;;;;4444813;32;20518;-59
2021/01/08 01:10:24;;;;;;;0.75;0.75;;;2.60;99.90;;;;;;4443133;32;20073;-58
2021/01/08 01:12:50;;;;;;;2.95;1.20;;;2.50;99.90;;;;;;4429377;32;20053;-57
2021/01/08 01:15:17;;;;;;;0.52;0.52;;;2.50;99.90;;;;;;4429413;32;20523;-59
2021/01/08 01:17:42;;;;;;;0.70;0.70;;;2.40;99.90;;;;;;4430125;32;20057;-57
2021/01/08 01:20:08;;;;;;;2.00;0.85;;;2.50;99.90;;;;;;4428178;32;20070;-58
2021/01/08 01:22:34;;;;;;;3.15;1.10;;;2.50;99.90;;;;;;4428186;32;20065;-59
2021/01/08 01:24:59;;;;;;;0.43;0.43;;;2.50;99.90;;;;;;4428935;32;20073;-59
2021/01/08 01:27:25;;;;;;;0.77;0.77;;;2.50;99.90;;;;;;4429536;32;20132;-57
2021/01/08 01:29:50;;;;;;;0.50;0.50;;;2.40;99.90;;;;;;4429335;32;20112;-59
2021/01/08 01:32:16;;;;;;;0.55;0.55;;;2.40;99.90;;;;;;4428143;32;20116;-59
2021/01/08 01:34:41;;;;;;;0.65;0.55;;;2.40;99.90;;;;;;4428350;32;20515;-59
2021/01/08 01:37:07;;;;;;;0.85;0.85;;;2.30;99.90;;;;;;4429237;32;20058;-55
2021/01/08 01:39:32;;;;;;;1.05;0.98;;;2.40;99.90;;;;;;4428020;32;20065;-57
2021/01/08 01:41:57;;;;;;;1.95;0.68;;;2.40;99.90;;;;;;4427979;32;20069;-58
2021/01/08 01:44:23;;;;;;;1.55;0.77;;;2.30;99.90;;;;;;4427872;32;20511;-58
2021/01/08 01:46:48;;;;;;;0.45;0.45;;;2.30;99.90;;;;;;4427753;32;20078;-59
2021/01/08 01:49:14;;;;;;;0.40;0.40;;;2.50;99.90;;;;;;4428049;32;20069;-59
2021/01/08 01:51:40;;;;;;;0.57;0.57;;;2.40;99.90;;;;;;4428383;32;20057;-59
2021/01/08 01:54:07;;;;;;;0.52;0.52;;;2.40;99.90;;;;;;4427326;32;20065;-59
2021/01/08 01:56:33;;;;;;;0.80;0.80;;;2.40;99.90;;;;;;4428196;32;20062;-59
2021/01/08 01:58:58;;;;;;;0.50;0.50;;;2.40;99.90;;;;;;4429242;32;20074;-57
2021/01/08 02:01:24;;;;;;;1.00;1.00;;;2.40;99.90;;;;;;4429043;32;20065;-56
2021/01/08 02:03:51;;;;;;;2.17;1.15;;;2.50;99.90;;;;;;4428803;32;20070;-57
2021/01/08 02:06:20;;;;;;;1.25;1.10;;;2.50;99.90;;;;;;4427199;32;20121;-58
2021/01/08 02:08:51;;;;;;;0.50;0.50;;;2.50;99.90;;;;;;4427859;32;20065;-54
2021/01/08 02:11:21;;;;;;;5.22;1.10;;;2.60;99.90;;;;;;4436756;32;20119;-58
2021/01/08 02:14:12;;;;;;;0.70;0.70;;;2.50;99.90;;;;;;4446916;32;20439;-58
2021/01/08 02:16:38;;;;;;;0.60;0.60;;;2.40;99.90;;;;;;4446128;32;20487;-57
2021/01/08 02:19:08;;;;;;;0.90;0.88;;;2.40;99.90;;;;;;4447280;32;20065;-55
2021/01/08 02:21:38;;;;;;;0.43;0.43;;;2.40;99.90;;;;;;4446687;32;20098;-59
2021/01/08 02:24:36;;;;;;;0.62;0.62;;;2.30;99.90;;;;;;4446969;32;20080;-58
2021/01/08 02:27:01;;;;;;;1.35;1.25;;;2.30;99.90;;;;;;4446301;32;20108;-56
2021/01/08 02:29:28;;;;;;;0.55;0.55;;;2.20;99.90;;;;;;4446843;32;20517;-57
2021/01/08 02:31:54;;;;;;;0.70;0.70;;;2.30;99.90;;;;;;4445262;32;20057;-57
2021/01/08 02:34:22;;;;;;;0.65;0.65;;;2.40;99.90;;;;;;4432482;32;20065;-58
2021/01/08 02:36:48;;;;;;;0.62;0.62;;;2.50;99.90;;;;;;4444791;32;20404;-57
2021/01/08 02:39:14;;;;;;;0.65;0.65;;;2.50;99.90;;;;;;4445500;32;20137;-58
2021/01/08 02:41:43;;;;;;;0.82;0.82;;;2.50;99.90;;;;;;4445108;32;20524;-55
2021/01/08 02:44:10;;;;;;;0.77;0.77;;;2.60;99.90;;;;;;4446829;32;20498;-58
2021/01/08 02:46:35;;;;;;;0.90;0.90;;;2.50;99.90;;;;;;4432579;32;20534;-59
2021/01/08 02:49:01;;;;;;;0.65;0.65;;;2.30;99.90;;;;;;4447071;32;20057;-59
2021/01/08 02:51:26;;;;;;;0.60;0.60;;;2.30;99.90;;;;;;4446281;32;20453;-58
2021/01/08 02:53:55;;;;;;;2.72;1.33;;;2.40;99.90;;;;;;4445092;32;20200;-58
2021/01/08 02:56:26;;;;;;;0.82;0.82;;;2.30;99.90;;;;;;4446226;32;20455;-59
2021/01/08 02:58:53;;;;;;;0.75;0.75;;;2.30;99.90;;;;;;4447192;32;20074;-59
2021/01/08 03:01:19;;;;;;;3.17;0.85;;;2.30;99.90;;;;;;4445734;32;20151;-59
2021/01/08 03:03:45;;;;;;;1.67;1.02;;;2.30;99.90;;;;;;4444715;32;20089;-57
2021/01/08 03:06:11;;;;;;;0.77;0.60;;;2.30;99.90;;;;;;4441536;32;20057;-58
2021/01/08 03:08:36;;;;;;;0.70;0.70;;;2.40;99.90;;;;;;4430124;32;20488;-57
2021/01/08 03:11:08;;;;;;;0.62;0.62;;;2.40;99.90;;;;;;4428797;32;20057;-58
2021/01/08 03:13:36;;;;;;;3.65;1.92;;;2.30;99.90;;;;;;4430020;32;20060;-58
2021/01/08 03:16:01;;;;;;;2.37;0.98;;;2.40;99.90;;;;;;4431792;32;20078;-54
2021/01/08 03:18:27;;;;;;;1.98;0.80;;;2.40;99.90;;;;;;4431089;32;20077;-57
2021/01/08 03:20:52;;;;;;;0.77;0.77;;;2.40;99.90;;;;;;4429998;32;20050;-57
2021/01/08 03:23:18;;;;;;;0.60;0.60;;;2.30;99.90;;;;;;4429965;32;20116;-57
2021/01/08 03:25:43;;;;;;;0.88;0.85;;;2.20;99.90;;;;;;4429690;32;20417;-59
2021/01/08 03:28:09;;;;;;;0.75;0.75;;;2.10;99.90;;;;;;4430673;32;20070;-57
2021/01/08 03:30:34;;;;;;;0.85;0.85;;;2.20;99.90;;;;;;4429811;32;20111;-59
2021/01/08 03:32:59;;;;;;;0.68;0.68;;;2.20;99.90;;;;;;4430514;32;20069;-57
2021/01/08 03:35:25;;;;;;;0.77;0.77;;;2.30;99.90;;;;;;4429953;32;20049;-58
2021/01/08 03:37:50;;;;;;;1.50;1.12;;;2.40;99.90;;;;;;4429697;32;20082;-58
2021/01/08 03:40:16;;;;;;;1.15;1.05;;;2.30;99.90;;;;;;4430148;32;20058;-59
2021/01/08 03:42:41;;;;;;;0.80;0.80;;;2.20;99.90;;;;;;4431045;32;20053;-59
2021/01/08 03:45:07;;;;;;;1.15;0.88;;;2.20;99.90;;;;;;4430651;32;20113;-58
2021/01/08 03:47:33;;;;;;;0.60;0.60;;;2.20;99.90;;;;;;4430084;32;20409;-59
2021/01/08 03:49:59;;;;;;;0.55;0.55;;;2.20;99.90;;;;;;4430504;32;20124;-57
2021/01/08 03:52:24;;;;;;;0.50;0.40;;;2.30;99.90;;;;;;4429971;32;20069;-59
2021/01/08 03:54:50;;;;;;;2.08;0.95;;;2.30;99.90;;;;;;4430030;32;20112;-54
2021/01/08 03:57:15;;;;;;;0.52;0.52;;;2.40;99.90;;;;;;4430675;32;20066;-58
2021/01/08 03:59:41;;;;;;;0.40;0.40;;;2.30;99.90;;;;;;4430727;32;20107;-57
2021/01/08 04:02:06;;;;;;;2.30;0.75;;;2.20;99.90;;;;;;4431069;32;20080;-57
2021/01/08 04:04:32;;;;;;;0.70;0.70;;;2.20;99.90;;;;;;4430283;32;20054;-58
2021/01/08 04:06:57;;;;;;;6.22;1.50;;;2.30;99.90;;;;;;4438915;32;20064;-58
2021/01/08 04:09:23;;;;;;;3.60;1.20;;;2.10;99.90;;;;;;4445944;32;20057;-57
2021/01/08 04:11:48;;;;;;;0.77;0.77;;;2.20;99.90;;;;;;4435398;32;20073;-59
2021/01/08 04:14:14;;;;;;;0.80;0.80;;;2.20;99.90;;;;;;4429037;32;20121;-57
2021/01/08 04:16:41;;;;;;;0.98;0.88;;;2.10;99.90;;;;;;4430921;32;20065;-59
2021/01/08 04:19:07;;;;;;;0.62;0.62;;;2.20;99.90;;;;;;4430883;32;20534;-58
2021/01/08 04:21:33;;;;;;;1.08;0.77;;;2.10;99.90;;;;;;4429602;32;20126;-57
2021/01/08 04:23:59;;;;;;;3.83;0.95;;;2.20;99.90;;;;;;4429689;32;20053;-58
2021/01/08 04:26:25;;;;;;;0.82;0.82;;;2.20;99.90;;;;;;4430508;32;20069;-59
2021/01/08 04:28:50;;;;;;;1.30;1.12;;;2.10;99.90;;;;;;4430337;32;20073;-59
2021/01/08 04:31:15;;;;;;;0.62;0.62;;;2.00;99.90;;;;;;4428876;32;20077;-55
2021/01/08 04:33:41;;;;;;;0.50;0.50;;;2.10;99.90;;;;;;4428876;32;20190;-57
2021/01/08 04:36:09;;;;;;;5.28;1.15;;;2.00;99.90;;;;;;4430395;32;20077;-57
2021/01/08 04:38:35;;;;;;;0.37;0.37;;;2.00;99.90;;;;;;4430041;32;20107;-54
2021/01/08 04:41:01;;;;;;;0.70;0.70;;;2.10;99.90;;;;;;4429776;32;20518;-53
2021/01/08 04:43:27;;;;;;;0.65;0.65;;;2.20;99.90;;;;;;4430304;32;20057;-59
2021/01/08 04:45:52;;;;;;;0.70;0.70;;;2.20;99.90;;;;;;4427951;32;20069;-56
2021/01/08 04:48:18;;;;;;;1.30;0.98;;;2.10;99.90;;;;;;4429177;32;20484;-57
2021/01/08 04:50:45;;;;;;;2.28;1.27;;;2.20;99.90;;;;;;4429521;32;20132;-59
2021/01/08 04:53:11;;;;;;;0.70;0.70;;;2.20;99.90;;;;;;4429295;32;20189;-58
2021/01/08 04:55:37;;;;;;;0.40;0.40;;;2.10;99.90;;;;;;4429712;32;20480;-59
2021/01/08 04:58:07;;;;;;;1.37;1.27;;;2.00;99.90;;;;;;4429790;32;20078;-57
2021/01/08 05:00:34;;;;;;;0.50;0.50;;;2.00;99.90;;;;;;4430173;32;20116;-59
2021/01/08 05:03:00;;;;;;;1.30;1.20;;;2.10;99.90;;;;;;4428581;32;20111;-57
2021/01/08 05:05:26;;;;;;;0.50;0.50;;;1.90;99.90;;;;;;4428359;32;20069;-58
2021/01/08 05:07:51;;;;;;;0.65;0.65;;;2.00;99.90;;;;;;4430373;32;20062;-59
2021/01/08 05:10:17;;;;;;;2.30;1.15;;;2.00;99.90;;;;;;4428560;32;20085;-59
2021/01/08 05:12:44;;;;;;;1.95;1.67;;;2.00;99.90;;;;;;4444468;32;20084;-58
2021/01/08 05:15:11;;;;;;;0.70;0.70;;;2.00;99.90;;;;;;4444381;32;20065;-58
2021/01/08 05:17:39;;;;;;;0.60;0.60;;;1.90;99.90;;;;;;4444727;32;20073;-60
2021/01/08 05:20:05;;;;;;;1.05;0.95;;;2.00;99.90;;;;;;4443360;32;20069;-56
2021/01/08 05:22:32;;;;;;;0.68;0.68;;;2.00;99.90;;;;;;4445393;32;20074;-58
2021/01/08 05:25:07;;;;;;;0.65;0.65;;;2.00;99.90;;;;;;4444697;32;20530;-55
2021/01/08 05:27:33;;;;;;;0.65;0.65;;;2.00;99.90;;;;;;4445571;32;20073;-57
2021/01/08 05:30:20;;;;;;;1.42;1.12;;;2.10;99.90;;;;;;4444006;32;20064;-55
2021/01/08 05:32:54;;;;;;;8.07;1.30;;;2.10;99.90;;;;;;4444137;32;20491;-55
2021/01/08 05:35:22;;;;;;;1.15;1.00;;;2.10;99.90;;;;;;4444651;32;20116;-56
2021/01/08 05:37:47;;;;;;;0.68;0.68;;;2.10;99.90;;;;;;4444799;32;20065;-58
2021/01/08 05:40:13;;;;;;;5.07;1.48;;;2.00;99.90;;;;;;4444824;32;20441;-57
2021/01/08 05:42:59;;;;;;;0.70;0.70;;;2.10;99.90;;;;;;4443118;32;20564;-57
2021/01/08 05:45:26;;;;;;;1.23;0.95;;;2.10;99.90;;;;;;4431741;32;20069;-58
2021/01/08 05:47:55;;;;;;;2.35;1.08;;;2.00;99.90;;;;;;4448188;32;20057;-57
2021/01/08 05:50:22;;;;;;;0.90;0.85;;;2.00;99.90;;;;;;4445342;32;20072;-57
2021/01/08 05:53:10;;;;;;;0.75;0.73;;;2.10;99.90;;;;;;4446039;32;20065;-59
2021/01/08 05:55:39;;;;;;;1.05;0.93;;;2.10;99.90;;;;;;4447261;32;20057;-58
2021/01/08 05:58:25;;;;;;;1.75;0.98;;;1.90;99.90;;;;;;4445736;32;20560;-59
2021/01/08 06:00:57;;;;;;;0.85;0.82;;;1.90;99.90;;;;;;4446129;32;20365;-57
2021/01/08 06:03:23;;;;;;;0.70;0.70;;;1.90;99.90;;;;;;4433279;32;20061;-57
2021/01/08 06:05:53;;;;;;;1.08;0.98;;;1.90;99.90;;;;;;4447297;32;20060;-57
2021/01/08 06:08:24;;;;;;;0.60;0.60;;;1.90;99.90;;;;;;4443253;32;20065;-59
2021/01/08 06:10:53;;;;;;;1.27;1.08;;;2.00;99.90;;;;;;4433228;32;20101;-57
2021/01/08 06:13:22;;;;;;;0.80;0.80;;;2.00;99.90;;;;;;4445843;32;20122;-58
2021/01/08 06:15:51;;;;;;;0.60;0.60;;;2.10;99.90;;;;;;4445611;32;20401;-57
2021/01/08 06:18:19;;;;;;;1.00;0.95;;;2.20;99.90;;;;;;4446228;32;20107;-58
2021/01/08 06:20:46;;;;;;;0.82;0.82;;;2.20;99.90;;;;;;4445394;32;20065;-59
2021/01/08 06:23:33;;;;;;;0.55;0.55;;;2.10;99.90;;;;;;4444256;32;20057;-59
2021/01/08 06:25:59;;;;;;;2.55;1.40;;;2.10;99.90;;;;;;4438948;32;20106;-58
2021/01/08 06:28:34;;;;;;;1.40;0.75;;;2.10;99.90;;;;;;4442760;32;20078;-59
2021/01/08 06:31:03;;;;;;;0.40;0.40;;;2.10;99.90;;;;;;4430454;32;20058;-58
2021/01/08 06:33:34;;;;;;;9.55;3.22;;;2.00;99.90;;;;;;4430403;32;20093;-57
2021/01/08 06:36:14;;;;;;;0.70;0.70;;;2.00;99.90;;;;;;4430079;32;20077;-57
2021/01/08 06:38:46;;;;;;;2.08;1.17;;;2.00;99.90;;;;;;4429300;32;20057;-58
2021/01/08 06:41:13;;;;;;;0.40;0.40;;;2.00;99.90;;;;;;4431390;32;20432;-59
2021/01/08 06:43:44;;;;;;;0.77;0.77;;;2.00;99.90;;;;;;4430094;32;20070;-56
2021/01/08 06:46:24;;;;;;;0.70;0.70;;;2.00;99.90;;;;;;4431084;32;20112;-58
2021/01/08 06:48:53;;;;;;;1.20;1.10;;;1.90;99.90;;;;;;4430873;32;20074;-58
2021/01/08 06:51:26;;;;;;;0.70;0.70;;;2.00;99.90;;;;;;4428747;32;20109;-59
2021/01/08 06:53:55;;;;;;;1.10;1.02;;;2.00;99.90;;;;;;4431506;32;20392;-59
2021/01/08 06:56:28;;;;;;;2.20;1.37;;;2.00;99.90;;;;;;4430295;32;20117;-59
2021/01/08 06:58:55;;;;;;;0.62;0.62;;;2.00;99.90;;;;;;4431787;32;20116;-59
2021/01/08 07:01:28;;;;;;;2.00;1.27;;;2.00;99.90;;;;;;4429675;32;20260;-59
2021/01/08 07:03:54;;;;;;;0.60;0.60;;;1.90;99.90;;;;;;4443920;32;20093;-59
2021/01/08 07:06:20;;;;;;;1.85;1.05;;;2.10;99.90;;;;;;4440140;32;20505;-59
2021/01/08 07:08:46;;;;;;;0.82;0.82;;;2.00;99.90;;;;;;4432569;32;20073;-58
2021/01/08 07:11:27;;;;;;;0.68;0.68;;;2.00;99.90;;;;;;4443709;32;20073;-58
2021/01/08 07:14:14;;;;;;;0.60;0.60;;;2.00;99.90;;;;;;4444857;32;20116;-54
2021/01/08 07:16:42;;;;;;;2.97;2.22;;;1.90;99.90;;;;;;4445333;32;20407;-59
2021/01/08 07:19:09;;;;;;;0.50;0.50;;;1.90;99.90;;;;;;4445693;32;20077;-58
2021/01/08 07:21:35;;;;;;;2.78;1.08;;;2.00;99.90;;;;;;4444804;32;20085;-58
2021/01/08 07:24:02;;;;;;;0.90;0.90;;;2.10;99.90;;;;;;4444762;32;20390;-58
2021/01/08 07:26:28;;;;;;;1.25;1.15;;;2.10;99.90;;;;;;4445306;32;20086;-59
2021/01/08 07:28:54;;;;;;;1.48;1.10;;;2.10;99.90;;;;;;4433712;32;20078;-58
2021/01/08 07:31:37;;;;;;;0.60;0.60;;;2.10;99.90;;;;;;4428159;32;20135;-57
2021/01/08 07:34:06;;;;;;;0.50;0.50;;;2.10;99.90;;;;;;4432218;32;20057;-57
2021/01/08 07:36:33;;;;;;;2.10;1.48;;;2.10;99.90;;;;;;4437737;32;20053;-59
2021/01/08 07:39:00;;;;;;;12.30;1.58;;;2.10;99.90;;;;;;4437129;32;20151;-58
2021/01/08 07:41:29;;;;;;;0.75;0.75;;;2.20;99.90;;;;;;4439010;32;20069;-58
2021/01/08 07:43:55;;;;;;;0.75;0.75;;;2.10;99.90;;;;;;4433613;32;20065;-58
2021/01/08 07:46:30;;;;;;;0.60;0.60;;;2.10;99.90;;;;;;4432339;32;20162;-59
2021/01/08 07:48:57;;;;;;;1.02;1.02;;;2.00;99.90;;;;;;4425574;32;20084;-56
2021/01/08 07:51:23;;;;;;;0.65;0.65;;;2.10;99.90;;;;;;4430462;32;20073;-58
2021/01/08 07:53:51;;;;;;;1.40;0.93;;;2.00;99.90;;;;;;4418634;32;20069;-58
2021/01/08 07:56:22;;;;;;;0.60;0.60;;;2.00;99.90;;;;;;4431305;32;20072;-58
2021/01/08 07:59:06;;;;;;;1.08;1.02;;;2.10;99.90;;;;;;4431832;32;20065;-58
2021/01/08 08:01:33;;;;;;;1.67;1.17;;;2.20;99.90;;;;;;4437894;32;20104;-59
2021/01/08 08:04:02;;;;;;;0.95;0.95;;;2.20;99.90;;;;;;4427188;32;20124;-54
2021/01/08 08:06:31;;;;;;;3.92;1.67;;;2.10;99.90;;;;;;4426594;32;20127;-57
2021/01/08 08:08:59;;;;;;;3.75;0.85;;;2.20;99.90;;;;;;4418838;32;20545;-58
2021/01/08 08:11:29;;;;;;;7.18;1.37;;;2.20;99.90;;;;;;4427064;32;20077;-58
2021/01/08 08:13:55;;;;;;;6.10;1.67;;;2.10;99.90;;;;;;4428064;32;20061;-58
2021/01/08 08:16:38;;;;;;;3.30;0.98;;;2.10;99.90;;;;;;4426496;32;20523;-59
2021/01/08 08:19:06;;;;;;;1.00;1.00;;;2.10;99.90;;;;;;4424432;32;20061;-58
2021/01/08 08:21:32;;;;;;;3.37;1.83;;;2.10;99.90;;;;;;4419783;32;20092;-59
2021/01/08 08:24:00;;;;;;;0.65;0.65;;;2.10;99.90;;;;;;4436111;32;20136;-60
2021/01/08 08:26:28;;;;;;;0.80;0.80;;;2.20;99.90;;;;;;4434757;32;20077;-59
2021/01/08 08:29:03;;;;;;;2.37;1.33;;;2.10;99.90;;;;;;4433969;32;20081;-59
2021/01/08 08:31:30;;;;;;;0.68;0.68;;;2.00;99.90;;;;;;4435127;32;20081;-59
2021/01/08 08:33:57;;;;;;;4.28;2.60;;;2.10;99.90;;;;;;4430909;32;20057;-60
2021/01/08 08:36:26;;;;;;;0.50;0.50;;;2.00;99.90;;;;;;4440546;32;20502;-61
2021/01/08 08:39:08;;;;;;;3.45;1.40;;;2.00;99.90;;;;;;4429972;32;20188;-60
2021/01/08 08:41:36;;;;;;;1.45;1.17;;;2.00;99.90;;;;;;4432961;32;93786;-58
2021/01/08 08:44:04;;;;;;;0.85;0.82;;;2.10;99.90;;;;;;4429908;32;20615;-61
2021/01/08 08:46:50;;;;;;;0.80;0.80;;;2.00;99.90;;;;;;4436527;32;20499;-61
2021/01/08 08:49:19;;;;;;;2.00;1.25;;;2.00;99.90;;;;;;4424906;32;20463;-61
2021/01/08 08:51:48;;;;;;;2.37;1.10;;;2.00;99.90;;;;;;4418949;32;20082;-61
2021/01/08 08:54:14;;;;;;;1.55;0.95;;;2.00;99.90;;;;;;4433585;32;20073;-61
2021/01/08 08:56:46;;;;;;;1.15;1.08;;;2.10;99.90;;;;;;4427362;32;20077;-61
2021/01/08 08:59:11;;;;;;;2.15;0.93;;;2.10;99.90;;;;;;4432468;32;20131;-59
2021/01/08 09:01:38;;;;;;;1.92;1.77;;;2.10;99.90;;;;;;4436052;32;20449;-61
2021/01/08 09:04:04;;;;;;;0.70;0.70;;;2.20;99.90;;;;;;4429904;32;20570;-61
2021/01/08 09:06:34;;;;;;;0.70;0.68;;;2.20;99.90;;;;;;4438330;32;20163;-59
2021/01/08 09:09:06;;;;;;;0.85;0.85;;;2.10;99.90;;;;;;4437828;32;20076;-58
2021/01/08 09:11:38;;;;;;;1.20;1.10;;;2.10;99.90;;;;;;4431885;32;20081;-60
2021/01/08 09:14:12;;;;;;;0.50;0.50;;;2.20;99.90;;;;;;4433021;32;20416;-59
2021/01/08 09:16:46;;;;;;;0.60;0.60;;;2.20;99.90;;;;;;4436853;32;20078;-60
2021/01/08 09:19:31;;;;;;;0.55;0.55;;;2.40;99.90;;;;;;4435849;32;20403;-59
2021/01/08 09:21:57;;;;;;;1.90;1.40;;;2.30;99.90;;;;;;4437621;32;20945;-60
2021/01/08 09:24:28;;;;;;;1.73;1.45;;;2.30;99.90;;;;;;4430491;32;20062;-59
2021/01/08 09:26:59;;;;;;;0.77;0.77;;;2.30;99.90;;;;;;4439421;32;20060;-59
2021/01/08 09:29:28;;;;;;;0.95;0.95;;;2.20;99.90;;;;;;4440716;32;20116;-60
2021/01/08 09:31:55;;;;;;;0.52;0.50;;;2.40;99.90;;;;;;4434780;32;20053;-59
2021/01/08 09:34:23;;;;;;;0.60;0.60;;;2.50;99.90;;;;;;4438935;32;20069;-60
2021/01/08 09:36:49;;;;;;;0.95;0.95;;;2.50;99.90;;;;;;4433850;32;20058;-60
2021/01/08 09:39:16;;;;;;;3.00;1.15;;;2.50;99.90;;;;;;4431320;32;20081;-62
2021/01/08 09:41:43;;;;;;;0.70;0.70;;;2.50;99.90;;;;;;4430067;32;20131;-60
2021/01/08 09:44:10;;;;;;;1.95;1.30;;;2.40;99.90;;;;;;4437749;32;20526;-59
2021/01/08 09:46:56;;;;;;;1.85;1.08;;;2.40;99.90;;;;;;4437143;32;20494;-59
2021/01/08 09:49:21;;;;;;;1.02;0.95;;;2.30;99.90;;;;;;4440238;32;20091;-60
2021/01/08 09:51:47;;;;;;;5.72;1.30;;;2.40;99.90;;;;;;4436569;32;20061;-60
2021/01/08 09:54:12;;;;;;;0.60;0.60;;;2.50;99.90;;;;;;4430380;32;20080;-58
2021/01/08 09:56:38;;;;;;;0.65;0.65;;;2.40;99.90;;;;;;4435591;32;20057;-60
2021/01/08 09:59:13;;;;;;;8.70;1.58;;;2.50;99.90;;;;;;4438265;32;20093;-61
2021/01/08 10:01:58;;;;;;;5.32;1.52;;;2.60;99.90;;;;;;4437086;32;20083;-60
2021/01/08 10:04:28;;;;;;;0.70;0.70;;;2.50;99.90;;;;;;4434475;32;20061;-60
2021/01/08 10:06:56;;;;;;;2.28;1.23;;;2.50;99.90;;;;;;4431447;32;20065;-60
2021/01/08 10:09:21;;;;;;;5.00;1.25;;;2.40;99.90;;;;;;4436752;32;20211;-61
2021/01/08 10:11:57;;;;;;;1.77;1.42;;;2.40;99.90;;;;;;4431463;32;20073;-60
2021/01/08 10:14:27;;;;;;;0.75;0.75;;;2.40;99.90;;;;;;4432801;32;20078;-61
2021/01/08 10:16:53;;;;;;;0.88;0.88;;;2.40;99.90;;;;;;4436294;32;20081;-59
2021/01/08 10:19:18;;;;;;;2.47;1.48;;;2.40;99.90;;;;;;4436184;32;20081;-61
2021/01/08 10:21:46;;;;;;;1.75;1.37;;;2.50;99.90;;;;;;4438091;32;20674;-60
2021/01/08 10:24:24;;;;;;;0.70;0.70;;;2.60;99.90;;;;;;4436208;32;20090;-60
2021/01/08 10:26:49;;;;;;;0.57;0.57;;;2.50;99.90;;;;;;4438148;32;20565;-60
2021/01/08 10:29:15;;;;;;;1.30;1.15;;;2.50;99.90;;;;;;4435382;32;20064;-59
2021/01/08 10:31:40;;;;;;;0.60;0.52;;;2.40;99.90;;;;;;4438723;32;20101;-60
2021/01/08 10:34:06;;;;;;;0.50;0.50;;;2.50;99.90;;;;;;4444227;32;20439;-60
2021/01/08 10:36:34;;;;;;;2.60;0.93;;;2.60;99.90;;;;;;4441375;32;20064;-61
2021/01/08 10:39:00;;;;;;;1.35;0.90;;;2.60;99.90;;;;;;4439010;32;20080;-60
2021/01/08 10:41:26;;;;;;;1.00;1.00;;;2.50;99.90;;;;;;4439925;32;20094;-60
2021/01/08 10:43:51;;;;;;;0.75;0.68;;;2.50;99.90;;;;;;4439952;32;20077;-59
2021/01/08 10:46:19;;;;;;;1.87;1.15;;;2.60;99.90;;;;;;4444220;32;20473;-61
2021/01/08 10:48:45;;;;;;;0.50;0.50;;;2.70;99.90;;;;;;4439559;32;20062;-61
2021/01/08 10:51:10;;;;;;;1.12;0.82;;;2.80;99.90;;;;;;4436451;32;20081;-61
2021/01/08 10:53:36;;;;;;;2.28;0.73;;;2.80;99.90;;;;;;4441165;32;20200;-58
2021/01/08 10:56:03;;;;;;;1.52;1.42;;;2.80;99.90;;;;;;4433764;32;20073;-58
2021/01/08 10:58:30;;;;;;;0.40;0.40;;;2.90;99.90;;;;;;4441860;32;20080;-61
2021/01/08 11:00:55;;;;;;;0.75;0.75;;;2.80;99.90;;;;;;4442036;32;20107;-61
2021/01/08 11:03:21;;;;;;;0.80;0.80;;;2.90;99.90;;;;;;4443128;32;20061;-61
2021/01/08 11:05:46;;;;;;;1.62;1.17;;;2.90;99.90;;;;;;4443465;32;20069;-60
2021/01/08 11:08:12;;;;;;;0.50;0.50;;;2.90;99.90;;;;;;4440925;32;20068;-58
2021/01/08 11:10:38;;;;;;;8.00;1.75;;;2.90;99.90;;;;;;4436419;32;20077;-59
2021/01/08 11:13:04;;;;;;;1.80;0.82;;;2.90;99.90;;;;;;4421445;32;20069;-58
2021/01/08 11:15:30;;;;;;;0.70;0.70;;;2.90;99.90;;;;;;4431446;32;20115;-60
2021/01/08 11:17:56;;;;;;;1.10;1.00;;;3.00;99.90;;;;;;4431326;32;20072;-60
2021/01/08 11:20:22;;;;;;;0.50;0.50;;;3.10;99.90;;;;;;4436259;32;20115;-60
2021/01/08 11:22:47;;;;;;;1.92;0.98;;;3.00;99.90;;;;;;4434020;32;20093;-61
2021/01/08 11:25:14;;;;;;;1.75;0.82;;;3.00;99.90;;;;;;4434696;32;20123;-61
2021/01/08 11:27:41;;;;;;;2.40;1.50;;;3.00;99.90;;;;;;4424210;32;20065;-59
2021/01/08 11:30:07;;;;;;;2.28;1.27;;;3.00;99.90;;;;;;4433367;32;20061;-59
2021/01/08 11:32:34;;;;;;;0.85;0.85;;;3.00;99.90;;;;;;4432657;32;20525;-59
2021/01/08 11:34:59;;;;;;;1.08;0.93;;;3.00;99.90;;;;;;4439618;32;20415;-58
2021/01/08 11:37:25;;;;;;;1.60;0.95;;;3.00;99.90;;;;;;4434223;32;20069;-60
2021/01/08 11:39:50;;;;;;;0.95;0.90;;;3.10;99.90;;;;;;4433390;32;20085;-59
2021/01/08 11:42:16;;;;;;;2.78;1.20;;;3.10;99.90;;;;;;4431616;32;20080;-60
2021/01/08 11:44:43;;;;;;;4.10;1.23;;;3.00;99.90;;;;;;4434809;32;20098;-59
2021/01/08 11:47:08;;;;;;;3.08;1.00;;;2.90;99.90;;;;;;4430154;32;20074;-57
2021/01/08 11:49:34;;;;;;;0.57;0.57;;;2.90;99.90;;;;;;4435315;32;20137;-59
2021/01/08 11:51:59;;;;;;;1.52;0.70;;;2.80;99.90;;;;;;4432126;32;20471;-59
2021/01/08 11:54:25;;;;;;;5.93;1.73;;;2.80;99.90;;;;;;4431258;32;20068;-58
2021/01/08 11:56:50;;;;;;;0.52;0.52;;;2.90;99.90;;;;;;4427018;32;20494;-60
2021/01/08 11:59:16;;;;;;;0.77;0.77;;;3.00;99.90;;;;;;4429299;32;20065;-60
2021/01/08 12:01:41;;;;;;;0.73;0.73;;;3.00;99.90;;;;;;4438728;32;20420;-60
2021/01/08 12:04:07;;;;;;;1.17;0.70;;;3.00;99.90;;;;;;4433516;32;20064;-60
2021/01/08 12:06:33;;;;;;;1.00;0.60;;;3.00;99.90;;;;;;4436983;32;20080;-60
2021/01/08 12:09:00;;;;;;;1.85;1.05;;;3.00;99.90;;;;;;4438343;32;20133;-60
2021/01/08 12:11:27;;;;;;;1.45;0.90;;;3.10;99.90;;;;;;4436033;32;20238;-60
2021/01/08 12:13:53;;;;;;;1.05;1.02;;;3.00;99.90;;;;;;4432691;32;20068;-60
2021/01/08 12:16:34;;;;;;;0.68;0.62;;;3.10;99.90;;;;;;4434512;32;20126;-56
2021/01/08 12:19:00;;;;;;;0.55;0.55;;;3.00;99.90;;;;;;4441522;32;20065;-59
2021/01/08 12:21:30;;;;;;;0.43;0.43;;;3.10;99.90;;;;;;4425117;32;20093;-59
2021/01/08 12:23:56;;;;;;;0.70;0.70;;;3.00;99.90;;;;;;4439463;32;20417;-58
2021/01/08 12:26:22;;;;;;;4.65;1.20;;;3.00;99.90;;;;;;4428541;32;20136;-59
2021/01/08 12:28:49;;;;;;;1.00;1.00;;;2.90;99.90;;;;;;4431586;32;20074;-58
2021/01/08 12:31:15;;;;;;;0.55;0.55;;;2.90;99.90;;;;;;4427378;32;20590;-58
2021/01/08 12:33:41;;;;;;;1.80;1.17;;;2.90;99.90;;;;;;4430341;32;20069;-58
2021/01/08 12:36:09;;;;;;;0.62;0.62;;;2.80;99.90;;;;;;4432731;32;20077;-58
2021/01/08 12:38:35;;;;;;;0.60;0.60;;;2.90;99.90;;;;;;4442126;32;20107;-57
2021/01/08 12:41:00;;;;;;;0.93;0.93;;;2.90;99.90;;;;;;4435083;32;20348;-59
2021/01/08 12:43:26;;;;;;;2.75;0.95;;;2.80;99.90;;;;;;4426545;32;20581;-58
2021/01/08 12:45:52;;;;;;;0.37;0.37;;;2.80;99.90;;;;;;4430699;32;20073;-57
2021/01/08 12:48:17;;;;;;;1.25;1.15;;;2.90;99.90;;;;;;4443628;32;20085;-59
2021/01/08 12:50:43;;;;;;;0.55;0.55;;;2.90;99.90;;;;;;4437670;32;20081;-58
2021/01/08 12:53:08;;;;;;;4.85;1.17;;;2.90;99.90;;;;;;4436508;32;20203;-55
2021/01/08 12:55:34;;;;;;;1.40;0.95;;;3.00;99.90;;;;;;4433555;32;20065;-58
2021/01/08 12:58:00;;;;;;;2.47;1.12;;;3.00;99.90;;;;;;4434534;32;20249;-58
2021/01/08 13:00:26;;;;;;;0.50;0.50;;;3.00;99.90;;;;;;4440634;32;20080;-59
2021/01/08 13:02:52;;;;;;;1.25;0.90;;;3.10;99.90;;;;;;4436029;32;20077;-56
2021/01/08 13:05:17;;;;;;;0.40;0.40;;;3.00;99.90;;;;;;4437740;32;20160;-59